sensor_id;sensor_type;location;lat;lon;timestamp;temperature;humidity
32698;DHT22;19087;51.062;3.754;2023-06-22T00:02:29;20.50;99.90
32698;DHT22;19087;51.062;3.754;2023-06-22T00:05:01;20.50;99.90
32698;DHT22;19087;51.062;3.754;2023-06-22T00:07:28;20.50;99.90
32698;DHT22;19087;51.062;3.754;2023-06-22T00:09:53;20.30;99.90
32698;DHT22;19087;51.062;3.754;2023-06-22T00:12:25;20.30;99.90
32698;DHT22;19087;51.062;3.754;2023-06-22T00:14:50;20.30;99.90
32698;DHT22;19087;51.062;3.754;2023-06-22T00:17:16;20.30;99.90
32698;DHT22;19087;51.062;3.754;2023-06-22T00:19:41;20.30;99.90
32698;DHT22;19087;51.062;3.754;2023-06-22T00:22:08;20.20;99.90
32698;DHT22;19087;51.062;3.754;2023-06-22T00:24:34;20.20;99.90
32698;DHT22;19087;51.062;3.754;2023-06-22T00:27:00;20.20;99.90
32698;DHT22;19087;51.062;3.754;2023-06-22T00:29:25;20.10;99.90
32698;DHT22;19087;51.062;3.754;2023-06-22T00:31:51;19.90;99.90
32698;DHT22;19087;51.062;3.754;2023-06-22T00:34:17;19.80;99.90
32698;DHT22;19087;51.062;3.754;2023-06-22T00:36:42;19.90;99.90
32698;DHT22;19087;51.062;3.754;2023-06-22T00:39:08;19.70;99.90
32698;DHT22;19087;51.062;3.754;2023-06-22T00:41:33;19.60;99.90
32698;DHT22;19087;51.062;3.754;2023-06-22T00:43:59;19.50;99.90
32698;DHT22;19087;51.062;3.754;2023-06-22T00:46:25;19.60;99.90
32698;DHT22;19087;51.062;3.754;2023-06-22T00:48:50;19.60;99.90
32698;DHT22;19087;51.062;3.754;2023-06-22T00:51:17;19.70;99.90
32698;DHT22;19087;51.062;3.754;2023-06-22T00:53:42;19.80;99.90
32698;DHT22;19087;51.062;3.754;2023-06-22T00:56:08;19.70;99.90
32698;DHT22;19087;51.062;3.754;2023-06-22T00:58:35;19.50;99.90
32698;DHT22;19087;51.062;3.754;2023-06-22T01:01:00;19.60;99.90
32698;DHT22;19087;51.062;3.754;2023-06-22T01:03:27;19.60;99.90
32698;DHT22;19087;51.062;3.754;2023-06-22T01:05:53;19.70;99.90
32698;DHT22;19087;51.062;3.754;2023-06-22T01:18:23;19.50;99.90
32698;DHT22;19087;51.062;3.754;2023-06-22T01:20:55;19.50;99.90
32698;DHT22;19087;51.062;3.754;2023-06-22T01:23:33;19.60;99.90
32698;DHT22;19087;51.062;3.754;2023-06-22T01:26:07;19.60;99.90
32698;DHT22;19087;51.062;3.754;2023-06-22T01:31:02;19.50;99.90
32698;DHT22;19087;51.062;3.754;2023-06-22T01:33:33;19.50;99.90
32698;DHT22;19087;51.062;3.754;2023-06-22T01:35:59;19.50;99.90
32698;DHT22;19087;51.062;3.754;2023-06-22T01:38:25;19.50;99.90
32698;DHT22;19087;51.062;3.754;2023-06-22T01:40:51;19.50;99.90
32698;DHT22;19087;51.062;3.754;2023-06-22T01:43:17;19.50;99.90
32698;DHT22;19087;51.062;3.754;2023-06-22T01:45:43;19.50;99.90
32698;DHT22;19087;51.062;3.754;2023-06-22T01:48:09;19.30;99.90
32698;DHT22;19087;51.062;3.754;2023-06-22T01:50:34;19.30;99.90
32698;DHT22;19087;51.062;3.754;2023-06-22T01:53:00;19.30;99.90
32698;DHT22;19087;51.062;3.754;2023-06-22T01:55:26;19.40;99.90
32698;DHT22;19087;51.062;3.754;2023-06-22T01:57:51;19.40;99.90
32698;DHT22;19087;51.062;3.754;2023-06-22T02:00:20;19.40;99.90
32698;DHT22;19087;51.062;3.754;2023-06-22T02:05:40;19.20;99.90
32698;DHT22;19087;51.062;3.754;2023-06-22T02:10:33;19.20;99.90
32698;DHT22;19087;51.062;3.754;2023-06-22T02:12:59;19.20;99.90
32698;DHT22;19087;51.062;3.754;2023-06-22T02:15:25;19.30;99.90
32698;DHT22;19087;51.062;3.754;2023-06-22T02:17:51;19.30;99.90
32698;DHT22;19087;51.062;3.754;2023-06-22T02:20:17;19.30;99.90
32698;DHT22;19087;51.062;3.754;2023-06-22T02:22:43;19.30;99.90
32698;DHT22;19087;51.062;3.754;2023-06-22T02:25:09;19.20;99.90
32698;DHT22;19087;51.062;3.754;2023-06-22T02:27:34;19.20;99.90
32698;DHT22;19087;51.062;3.754;2023-06-22T02:30:00;19.20;99.90
32698;DHT22;19087;51.062;3.754;2023-06-22T02:32:25;19.20;99.90
32698;DHT22;19087;51.062;3.754;2023-06-22T02:34:52;19.20;99.90
32698;DHT22;19087;51.062;3.754;2023-06-22T02:37:17;19.10;99.90
32698;DHT22;19087;51.062;3.754;2023-06-22T02:39:43;19.20;99.90
32698;DHT22;19087;51.062;3.754;2023-06-22T02:42:08;19.10;99.90
32698;DHT22;19087;51.062;3.754;2023-06-22T02:44:37;19.10;99.90
32698;DHT22;19087;51.062;3.754;2023-06-22T02:47:03;19.10;99.90
32698;DHT22;19087;51.062;3.754;2023-06-22T02:49:29;19.10;99.90
32698;DHT22;19087;51.062;3.754;2023-06-22T02:51:55;19.00;99.90
32698;DHT22;19087;51.062;3.754;2023-06-22T02:54:20;19.00;99.90
32698;DHT22;19087;51.062;3.754;2023-06-22T02:56:46;19.00;99.90
32698;DHT22;19087;51.062;3.754;2023-06-22T02:59:13;19.00;99.90
32698;DHT22;19087;51.062;3.754;2023-06-22T03:01:38;19.00;99.90
32698;DHT22;19087;51.062;3.754;2023-06-22T03:04:07;19.00;99.90
32698;DHT22;19087;51.062;3.754;2023-06-22T03:06:33;18.90;99.90
32698;DHT22;19087;51.062;3.754;2023-06-22T03:08:59;18.90;99.90
32698;DHT22;19087;51.062;3.754;2023-06-22T03:11:25;18.80;99.90
32698;DHT22;19087;51.062;3.754;2023-06-22T03:13:50;18.60;99.90
32698;DHT22;19087;51.062;3.754;2023-06-22T03:16:18;18.70;99.90
32698;DHT22;19087;51.062;3.754;2023-06-22T03:18:44;18.70;99.90
32698;DHT22;19087;51.062;3.754;2023-06-22T03:21:10;18.80;99.90
32698;DHT22;19087;51.062;3.754;2023-06-22T03:23:35;18.80;99.90
32698;DHT22;19087;51.062;3.754;2023-06-22T03:26:01;18.80;99.90
32698;DHT22;19087;51.062;3.754;2023-06-22T03:28:27;18.80;99.90
32698;DHT22;19087;51.062;3.754;2023-06-22T03:30:53;18.80;99.90
32698;DHT22;19087;51.062;3.754;2023-06-22T03:33:18;18.90;99.90
32698;DHT22;19087;51.062;3.754;2023-06-22T03:35:44;18.80;99.90
32698;DHT22;19087;51.062;3.754;2023-06-22T03:38:09;18.80;99.90
32698;DHT22;19087;51.062;3.754;2023-06-22T03:40:35;18.80;99.90
32698;DHT22;19087;51.062;3.754;2023-06-22T03:43:01;18.70;99.90
32698;DHT22;19087;51.062;3.754;2023-06-22T03:45:26;18.70;99.90
32698;DHT22;19087;51.062;3.754;2023-06-22T03:47:52;18.80;99.90
32698;DHT22;19087;51.062;3.754;2023-06-22T03:50:18;18.80;99.90
32698;DHT22;19087;51.062;3.754;2023-06-22T03:52:46;18.90;99.90
32698;DHT22;19087;51.062;3.754;2023-06-22T03:55:11;18.90;99.90
32698;DHT22;19087;51.062;3.754;2023-06-22T03:57:37;18.90;99.90
32698;DHT22;19087;51.062;3.754;2023-06-22T04:00:02;19.00;99.90
32698;DHT22;19087;51.062;3.754;2023-06-22T04:02:31;19.10;99.90
32698;DHT22;19087;51.062;3.754;2023-06-22T04:04:56;19.10;99.90
32698;DHT22;19087;51.062;3.754;2023-06-22T04:07:22;19.10;99.90
32698;DHT22;19087;51.062;3.754;2023-06-22T04:09:48;19.20;99.90
32698;DHT22;19087;51.062;3.754;2023-06-22T04:12:13;19.30;99.90
32698;DHT22;19087;51.062;3.754;2023-06-22T04:14:39;19.40;99.90
32698;DHT22;19087;51.062;3.754;2023-06-22T04:17:04;19.40;99.90
32698;DHT22;19087;51.062;3.754;2023-06-22T04:19:30;19.50;99.90
32698;DHT22;19087;51.062;3.754;2023-06-22T04:21:56;19.50;99.90
32698;DHT22;19087;51.062;3.754;2023-06-22T04:24:21;19.50;99.90
32698;DHT22;19087;51.062;3.754;2023-06-22T04:26:47;19.60;99.90
32698;DHT22;19087;51.062;3.754;2023-06-22T04:29:13;19.70;99.90
32698;DHT22;19087;51.062;3.754;2023-06-22T04:31:38;19.70;99.90
32698;DHT22;19087;51.062;3.754;2023-06-22T04:34:05;19.80;99.90
32698;DHT22;19087;51.062;3.754;2023-06-22T04:36:38;19.90;99.90
32698;DHT22;19087;51.062;3.754;2023-06-22T04:39:05;20.00;99.90
32698;DHT22;19087;51.062;3.754;2023-06-22T04:41:31;20.10;99.90
32698;DHT22;19087;51.062;3.754;2023-06-22T04:44:07;20.20;99.90
32698;DHT22;19087;51.062;3.754;2023-06-22T04:46:33;20.20;99.90
32698;DHT22;19087;51.062;3.754;2023-06-22T04:49:07;20.30;99.90
32698;DHT22;19087;51.062;3.754;2023-06-22T04:51:43;20.30;99.90
32698;DHT22;19087;51.062;3.754;2023-06-22T04:54:09;20.50;99.90
32698;DHT22;19087;51.062;3.754;2023-06-22T04:56:37;20.50;99.90
32698;DHT22;19087;51.062;3.754;2023-06-22T04:59:06;20.60;99.90
32698;DHT22;19087;51.062;3.754;2023-06-22T05:01:31;20.80;99.90
32698;DHT22;19087;51.062;3.754;2023-06-22T05:03:57;20.70;99.90
32698;DHT22;19087;51.062;3.754;2023-06-22T05:06:23;20.90;99.90
32698;DHT22;19087;51.062;3.754;2023-06-22T05:08:56;20.90;99.90
32698;DHT22;19087;51.062;3.754;2023-06-22T05:11:27;21.20;99.90
32698;DHT22;19087;51.062;3.754;2023-06-22T05:13:59;21.30;99.90
32698;DHT22;19087;51.062;3.754;2023-06-22T05:16:25;21.40;99.90
32698;DHT22;19087;51.062;3.754;2023-06-22T05:18:57;21.50;99.90
32698;DHT22;19087;51.062;3.754;2023-06-22T05:21:31;21.60;99.90
32698;DHT22;19087;51.062;3.754;2023-06-22T05:23:57;21.60;99.90
32698;DHT22;19087;51.062;3.754;2023-06-22T05:29:14;22.10;99.90
32698;DHT22;19087;51.062;3.754;2023-06-22T05:31:40;22.30;99.90
32698;DHT22;19087;51.062;3.754;2023-06-22T05:34:07;22.60;99.90
32698;DHT22;19087;51.062;3.754;2023-06-22T05:36:33;22.80;99.90
32698;DHT22;19087;51.062;3.754;2023-06-22T05:38:59;23.00;99.90
32698;DHT22;19087;51.062;3.754;2023-06-22T05:41:24;23.30;99.90
32698;DHT22;19087;51.062;3.754;2023-06-22T05:43:52;23.40;99.90
32698;DHT22;19087;51.062;3.754;2023-06-22T05:46:18;23.50;99.90
32698;DHT22;19087;51.062;3.754;2023-06-22T05:48:44;23.70;99.90
32698;DHT22;19087;51.062;3.754;2023-06-22T05:51:09;23.80;99.90
32698;DHT22;19087;51.062;3.754;2023-06-22T05:53:35;23.80;99.90
32698;DHT22;19087;51.062;3.754;2023-06-22T05:56:00;24.00;99.90
32698;DHT22;19087;51.062;3.754;2023-06-22T05:58:26;24.00;99.90
32698;DHT22;19087;51.062;3.754;2023-06-22T06:00:52;24.10;99.90
32698;DHT22;19087;51.062;3.754;2023-06-22T06:03:17;24.10;99.90
32698;DHT22;19087;51.062;3.754;2023-06-22T06:05:43;24.00;99.90
32698;DHT22;19087;51.062;3.754;2023-06-22T06:08:10;24.10;99.90
32698;DHT22;19087;51.062;3.754;2023-06-22T06:10:36;24.10;99.90
32698;DHT22;19087;51.062;3.754;2023-06-22T06:13:02;24.00;99.90
32698;DHT22;19087;51.062;3.754;2023-06-22T06:15:29;24.10;99.90
32698;DHT22;19087;51.062;3.754;2023-06-22T06:17:56;24.20;99.90
32698;DHT22;19087;51.062;3.754;2023-06-22T06:20:23;24.20;99.90
32698;DHT22;19087;51.062;3.754;2023-06-22T06:22:49;24.10;99.90
32698;DHT22;19087;51.062;3.754;2023-06-22T06:25:14;24.20;99.90
32698;DHT22;19087;51.062;3.754;2023-06-22T06:27:49;24.30;99.90
32698;DHT22;19087;51.062;3.754;2023-06-22T06:30:17;24.20;99.90
32698;DHT22;19087;51.062;3.754;2023-06-22T06:32:43;24.20;99.90
32698;DHT22;19087;51.062;3.754;2023-06-22T06:35:11;24.30;99.90
32698;DHT22;19087;51.062;3.754;2023-06-22T06:37:37;24.40;99.90
32698;DHT22;19087;51.062;3.754;2023-06-22T06:40:03;24.50;99.90
32698;DHT22;19087;51.062;3.754;2023-06-22T06:42:30;24.50;99.90
32698;DHT22;19087;51.062;3.754;2023-06-22T06:44:56;24.50;99.90
32698;DHT22;19087;51.062;3.754;2023-06-22T06:47:22;24.70;99.90
32698;DHT22;19087;51.062;3.754;2023-06-22T06:49:47;24.80;99.90
32698;DHT22;19087;51.062;3.754;2023-06-22T06:52:13;24.80;99.90
32698;DHT22;19087;51.062;3.754;2023-06-22T06:54:39;24.80;99.90
32698;DHT22;19087;51.062;3.754;2023-06-22T06:57:04;24.80;99.90
32698;DHT22;19087;51.062;3.754;2023-06-22T06:59:30;24.80;99.90
32698;DHT22;19087;51.062;3.754;2023-06-22T07:01:55;24.90;99.90
32698;DHT22;19087;51.062;3.754;2023-06-22T07:04:21;25.00;99.90
32698;DHT22;19087;51.062;3.754;2023-06-22T07:06:47;25.20;99.90
32698;DHT22;19087;51.062;3.754;2023-06-22T07:09:12;25.20;99.70
32698;DHT22;19087;51.062;3.754;2023-06-22T07:11:38;25.30;99.40
32698;DHT22;19087;51.062;3.754;2023-06-22T07:14:03;25.30;99.10
32698;DHT22;19087;51.062;3.754;2023-06-22T07:16:29;25.40;98.90
32698;DHT22;19087;51.062;3.754;2023-06-22T07:18:56;25.40;98.70
32698;DHT22;19087;51.062;3.754;2023-06-22T07:21:22;25.50;98.60
32698;DHT22;19087;51.062;3.754;2023-06-22T07:23:47;25.50;98.20
32698;DHT22;19087;51.062;3.754;2023-06-22T07:26:13;25.20;98.50
32698;DHT22;19087;51.062;3.754;2023-06-22T07:28:38;25.30;98.40
32698;DHT22;19087;51.062;3.754;2023-06-22T07:31:06;25.30;98.50
32698;DHT22;19087;51.062;3.754;2023-06-22T07:33:32;25.30;98.80
32698;DHT22;19087;51.062;3.754;2023-06-22T07:35:58;25.40;98.70
32698;DHT22;19087;51.062;3.754;2023-06-22T07:38:23;25.50;98.00
32698;DHT22;19087;51.062;3.754;2023-06-22T07:40:49;25.40;98.10
32698;DHT22;19087;51.062;3.754;2023-06-22T07:43:16;25.40;98.70
32698;DHT22;19087;51.062;3.754;2023-06-22T07:45:47;25.40;98.70
32698;DHT22;19087;51.062;3.754;2023-06-22T07:48:19;25.40;98.50
32698;DHT22;19087;51.062;3.754;2023-06-22T07:50:45;25.40;98.00
32698;DHT22;19087;51.062;3.754;2023-06-22T07:53:10;25.40;98.40
32698;DHT22;19087;51.062;3.754;2023-06-22T07:55:36;25.30;98.20
32698;DHT22;19087;51.062;3.754;2023-06-22T07:58:01;25.40;98.50
32698;DHT22;19087;51.062;3.754;2023-06-22T08:00:27;25.40;98.10
32698;DHT22;19087;51.062;3.754;2023-06-22T08:02:53;25.60;97.50
32698;DHT22;19087;51.062;3.754;2023-06-22T08:05:18;25.60;97.70
32698;DHT22;19087;51.062;3.754;2023-06-22T08:07:44;25.50;97.50
32698;DHT22;19087;51.062;3.754;2023-06-22T08:10:10;25.50;97.70
32698;DHT22;19087;51.062;3.754;2023-06-22T08:12:36;25.60;97.60
32698;DHT22;19087;51.062;3.754;2023-06-22T08:15:02;25.60;97.30
32698;DHT22;19087;51.062;3.754;2023-06-22T08:17:28;25.50;97.10
32698;DHT22;19087;51.062;3.754;2023-06-22T08:19:53;25.30;97.50
32698;DHT22;19087;51.062;3.754;2023-06-22T08:22:19;25.30;97.60
32698;DHT22;19087;51.062;3.754;2023-06-22T08:24:44;25.30;97.50
32698;DHT22;19087;51.062;3.754;2023-06-22T08:27:10;25.30;97.00
32698;DHT22;19087;51.062;3.754;2023-06-22T08:29:40;25.40;97.00
32698;DHT22;19087;51.062;3.754;2023-06-22T08:32:08;25.40;96.40
32698;DHT22;19087;51.062;3.754;2023-06-22T08:34:34;25.50;96.10
32698;DHT22;19087;51.062;3.754;2023-06-22T08:37:00;25.40;96.60
32698;DHT22;19087;51.062;3.754;2023-06-22T08:39:26;25.20;96.80
32698;DHT22;19087;51.062;3.754;2023-06-22T08:41:53;25.30;97.00
32698;DHT22;19087;51.062;3.754;2023-06-22T08:44:18;25.30;97.00
32698;DHT22;19087;51.062;3.754;2023-06-22T08:46:45;25.20;97.40
32698;DHT22;19087;51.062;3.754;2023-06-22T08:49:11;25.10;97.70
32698;DHT22;19087;51.062;3.754;2023-06-22T08:51:38;25.10;98.00
32698;DHT22;19087;51.062;3.754;2023-06-22T08:54:03;25.00;97.90
32698;DHT22;19087;51.062;3.754;2023-06-22T08:56:30;25.00;98.00
32698;DHT22;19087;51.062;3.754;2023-06-22T08:58:55;25.10;98.20
32698;DHT22;19087;51.062;3.754;2023-06-22T09:01:21;25.00;98.20
32698;DHT22;19087;51.062;3.754;2023-06-22T09:03:47;25.10;97.80
32698;DHT22;19087;51.062;3.754;2023-06-22T09:06:20;25.10;97.70
32698;DHT22;19087;51.062;3.754;2023-06-22T09:08:47;25.00;97.80
32698;DHT22;19087;51.062;3.754;2023-06-22T09:11:12;25.00;98.10
32698;DHT22;19087;51.062;3.754;2023-06-22T09:13:38;25.00;98.10
32698;DHT22;19087;51.062;3.754;2023-06-22T09:16:04;25.10;98.10
32698;DHT22;19087;51.062;3.754;2023-06-22T09:18:30;25.10;97.80
32698;DHT22;19087;51.062;3.754;2023-06-22T09:20:56;25.10;97.50
32698;DHT22;19087;51.062;3.754;2023-06-22T09:23:21;25.00;97.60
32698;DHT22;19087;51.062;3.754;2023-06-22T09:25:47;24.90;97.80
32698;DHT22;19087;51.062;3.754;2023-06-22T09:28:14;25.00;97.80
32698;DHT22;19087;51.062;3.754;2023-06-22T09:30:39;25.00;97.50
32698;DHT22;19087;51.062;3.754;2023-06-22T09:33:05;24.90;97.50
32698;DHT22;19087;51.062;3.754;2023-06-22T09:35:31;24.70;97.80
32698;DHT22;19087;51.062;3.754;2023-06-22T09:37:56;24.50;98.40
32698;DHT22;19087;51.062;3.754;2023-06-22T09:40:22;24.30;98.60
32698;DHT22;19087;51.062;3.754;2023-06-22T09:42:47;24.20;98.80
32698;DHT22;19087;51.062;3.754;2023-06-22T09:45:13;24.00;99.00
32698;DHT22;19087;51.062;3.754;2023-06-22T09:47:39;24.00;99.40
32698;DHT22;19087;51.062;3.754;2023-06-22T09:50:05;24.00;99.30
32698;DHT22;19087;51.062;3.754;2023-06-22T09:52:30;24.10;99.80
32698;DHT22;19087;51.062;3.754;2023-06-22T09:54:56;24.10;99.70
32698;DHT22;19087;51.062;3.754;2023-06-22T09:57:22;24.10;99.80
32698;DHT22;19087;51.062;3.754;2023-06-22T09:59:47;24.20;99.40
32698;DHT22;19087;51.062;3.754;2023-06-22T10:02:13;24.10;99.70
32698;DHT22;19087;51.062;3.754;2023-06-22T10:04:39;24.10;99.90
32698;DHT22;19087;51.062;3.754;2023-06-22T10:07:05;24.00;99.90
32698;DHT22;19087;51.062;3.754;2023-06-22T10:09:31;23.90;99.90
32698;DHT22;19087;51.062;3.754;2023-06-22T10:11:57;23.70;99.90
32698;DHT22;19087;51.062;3.754;2023-06-22T10:14:23;23.50;99.90
32698;DHT22;19087;51.062;3.754;2023-06-22T10:16:52;23.50;99.90
32698;DHT22;19087;51.062;3.754;2023-06-22T10:19:18;23.40;99.90
32698;DHT22;19087;51.062;3.754;2023-06-22T10:21:44;23.30;99.90
32698;DHT22;19087;51.062;3.754;2023-06-22T10:24:11;23.20;99.90
32698;DHT22;19087;51.062;3.754;2023-06-22T10:26:38;23.10;99.90
32698;DHT22;19087;51.062;3.754;2023-06-22T10:29:04;23.10;99.90
32698;DHT22;19087;51.062;3.754;2023-06-22T10:31:29;23.00;99.90
32698;DHT22;19087;51.062;3.754;2023-06-22T10:33:55;22.90;99.90
32698;DHT22;19087;51.062;3.754;2023-06-22T10:36:21;22.90;99.90
32698;DHT22;19087;51.062;3.754;2023-06-22T10:38:47;23.00;99.90
32698;DHT22;19087;51.062;3.754;2023-06-22T10:41:14;23.00;99.90
32698;DHT22;19087;51.062;3.754;2023-06-22T10:43:40;23.10;99.90
32698;DHT22;19087;51.062;3.754;2023-06-22T10:46:06;23.10;99.90
32698;DHT22;19087;51.062;3.754;2023-06-22T10:48:32;23.10;99.90
32698;DHT22;19087;51.062;3.754;2023-06-22T10:50:58;23.30;99.90
32698;DHT22;19087;51.062;3.754;2023-06-22T10:53:24;23.50;99.90
32698;DHT22;19087;51.062;3.754;2023-06-22T10:55:49;23.60;99.90
32698;DHT22;19087;51.062;3.754;2023-06-22T10:58:17;23.70;99.90
32698;DHT22;19087;51.062;3.754;2023-06-22T11:00:43;23.90;99.90
32698;DHT22;19087;51.062;3.754;2023-06-22T11:03:09;23.80;99.90
32698;DHT22;19087;51.062;3.754;2023-06-22T11:05:35;23.80;99.90
32698;DHT22;19087;51.062;3.754;2023-06-22T11:08:00;23.80;99.90
32698;DHT22;19087;51.062;3.754;2023-06-22T11:10:27;23.80;99.90
32698;DHT22;19087;51.062;3.754;2023-06-22T11:12:52;23.70;99.90
32698;DHT22;19087;51.062;3.754;2023-06-22T11:15:18;23.80;99.90
32698;DHT22;19087;51.062;3.754;2023-06-22T11:17:44;23.80;99.90
32698;DHT22;19087;51.062;3.754;2023-06-22T11:20:10;23.70;99.90
32698;DHT22;19087;51.062;3.754;2023-06-22T11:22:37;23.60;99.90
32698;DHT22;19087;51.062;3.754;2023-06-22T11:25:03;23.50;99.90
32698;DHT22;19087;51.062;3.754;2023-06-22T11:27:29;23.30;99.90
32698;DHT22;19087;51.062;3.754;2023-06-22T11:29:55;22.90;99.90
32698;DHT22;19087;51.062;3.754;2023-06-22T11:32:20;22.80;99.90
32698;DHT22;19087;51.062;3.754;2023-06-22T11:34:46;22.70;99.90
32698;DHT22;19087;51.062;3.754;2023-06-22T11:37:11;22.60;99.90
32698;DHT22;19087;51.062;3.754;2023-06-22T11:39:37;22.50;99.90
32698;DHT22;19087;51.062;3.754;2023-06-22T11:42:03;22.60;99.90
32698;DHT22;19087;51.062;3.754;2023-06-22T11:44:28;22.50;99.90
32698;DHT22;19087;51.062;3.754;2023-06-22T11:46:54;22.50;99.90
32698;DHT22;19087;51.062;3.754;2023-06-22T11:49:19;22.50;99.90
32698;DHT22;19087;51.062;3.754;2023-06-22T11:51:45;22.50;99.90
32698;DHT22;19087;51.062;3.754;2023-06-22T11:54:11;22.40;99.90
32698;DHT22;19087;51.062;3.754;2023-06-22T11:56:36;22.40;99.90
32698;DHT22;19087;51.062;3.754;2023-06-22T11:59:02;22.50;99.90
32698;DHT22;19087;51.062;3.754;2023-06-22T12:01:28;22.60;99.90
32698;DHT22;19087;51.062;3.754;2023-06-22T12:03:53;22.50;99.90
32698;DHT22;19087;51.062;3.754;2023-06-22T12:06:19;22.60;99.90
32698;DHT22;19087;51.062;3.754;2023-06-22T12:08:45;22.60;99.90
32698;DHT22;19087;51.062;3.754;2023-06-22T12:11:11;22.70;99.90
32698;DHT22;19087;51.062;3.754;2023-06-22T12:13:37;22.70;99.90
32698;DHT22;19087;51.062;3.754;2023-06-22T12:16:06;22.70;99.90
32698;DHT22;19087;51.062;3.754;2023-06-22T12:18:32;22.60;99.90
32698;DHT22;19087;51.062;3.754;2023-06-22T12:20:58;22.70;99.90
32698;DHT22;19087;51.062;3.754;2023-06-22T12:23:23;22.60;99.90
32698;DHT22;19087;51.062;3.754;2023-06-22T12:25:49;22.60;99.90
32698;DHT22;19087;51.062;3.754;2023-06-22T12:28:16;22.60;99.90
32698;DHT22;19087;51.062;3.754;2023-06-22T12:30:47;22.70;99.90
32698;DHT22;19087;51.062;3.754;2023-06-22T12:33:23;22.80;99.90
32698;DHT22;19087;51.062;3.754;2023-06-22T12:35:48;23.00;99.90
32698;DHT22;19087;51.062;3.754;2023-06-22T12:38:14;23.00;99.90
32698;DHT22;19087;51.062;3.754;2023-06-22T12:40:40;23.00;99.90
32698;DHT22;19087;51.062;3.754;2023-06-22T12:43:05;23.10;99.90
32698;DHT22;19087;51.062;3.754;2023-06-22T12:45:33;23.00;99.90
32698;DHT22;19087;51.062;3.754;2023-06-22T12:48:00;23.00;99.90
32698;DHT22;19087;51.062;3.754;2023-06-22T12:50:27;23.10;99.90
32698;DHT22;19087;51.062;3.754;2023-06-22T12:52:53;23.10;99.90
32698;DHT22;19087;51.062;3.754;2023-06-22T12:55:19;23.20;99.90
32698;DHT22;19087;51.062;3.754;2023-06-22T12:57:45;23.20;99.90
32698;DHT22;19087;51.062;3.754;2023-06-22T13:00:13;23.10;99.90
32698;DHT22;19087;51.062;3.754;2023-06-22T13:02:39;22.90;99.90
32698;DHT22;19087;51.062;3.754;2023-06-22T13:05:04;22.90;99.90
32698;DHT22;19087;51.062;3.754;2023-06-22T13:07:30;22.90;99.90
32698;DHT22;19087;51.062;3.754;2023-06-22T13:09:56;23.00;99.90
32698;DHT22;19087;51.062;3.754;2023-06-22T13:12:21;23.10;99.90
32698;DHT22;19087;51.062;3.754;2023-06-22T13:14:48;23.10;99.90
32698;DHT22;19087;51.062;3.754;2023-06-22T13:17:13;23.20;99.90
32698;DHT22;19087;51.062;3.754;2023-06-22T13:19:42;23.30;99.90
32698;DHT22;19087;51.062;3.754;2023-06-22T13:24:54;23.30;99.90
32698;DHT22;19087;51.062;3.754;2023-06-22T13:27:19;23.50;99.90
32698;DHT22;19087;51.062;3.754;2023-06-22T13:29:47;23.70;99.90
32698;DHT22;19087;51.062;3.754;2023-06-22T13:32:13;23.80;99.90
32698;DHT22;19087;51.062;3.754;2023-06-22T13:34:38;23.80;99.90
32698;DHT22;19087;51.062;3.754;2023-06-22T13:37:04;23.80;99.90
32698;DHT22;19087;51.062;3.754;2023-06-22T13:39:30;23.80;99.90
32698;DHT22;19087;51.062;3.754;2023-06-22T13:41:56;23.70;99.90
32698;DHT22;19087;51.062;3.754;2023-06-22T13:44:21;23.80;99.90
32698;DHT22;19087;51.062;3.754;2023-06-22T13:46:47;23.90;99.90
32698;DHT22;19087;51.062;3.754;2023-06-22T13:49:13;24.10;99.90
32698;DHT22;19087;51.062;3.754;2023-06-22T13:51:39;24.20;99.90
32698;DHT22;19087;51.062;3.754;2023-06-22T13:54:05;24.40;99.90
32698;DHT22;19087;51.062;3.754;2023-06-22T13:56:30;24.60;99.90
32698;DHT22;19087;51.062;3.754;2023-06-22T13:58:56;24.80;99.90
32698;DHT22;19087;51.062;3.754;2023-06-22T14:01:21;25.00;99.90
32698;DHT22;19087;51.062;3.754;2023-06-22T14:03:47;25.30;99.90
32698;DHT22;19087;51.062;3.754;2023-06-22T14:06:13;25.50;99.90
32698;DHT22;19087;51.062;3.754;2023-06-22T14:08:39;25.50;99.90
32698;DHT22;19087;51.062;3.754;2023-06-22T14:11:04;25.70;99.90
32698;DHT22;19087;51.062;3.754;2023-06-22T14:13:30;25.80;99.90
32698;DHT22;19087;51.062;3.754;2023-06-22T14:15:55;25.60;99.90
32698;DHT22;19087;51.062;3.754;2023-06-22T14:18:21;25.70;99.90
32698;DHT22;19087;51.062;3.754;2023-06-22T14:20:48;25.70;99.90
32698;DHT22;19087;51.062;3.754;2023-06-22T14:23:13;25.60;99.90
32698;DHT22;19087;51.062;3.754;2023-06-22T14:25:39;25.50;99.90
32698;DHT22;19087;51.062;3.754;2023-06-22T14:28:06;25.60;99.90
32698;DHT22;19087;51.062;3.754;2023-06-22T14:30:32;25.70;99.90
32698;DHT22;19087;51.062;3.754;2023-06-22T14:32:57;25.70;99.90
32698;DHT22;19087;51.062;3.754;2023-06-22T14:35:26;25.80;99.90
32698;DHT22;19087;51.062;3.754;2023-06-22T14:37:54;25.90;99.90
32698;DHT22;19087;51.062;3.754;2023-06-22T14:40:21;26.10;99.90
32698;DHT22;19087;51.062;3.754;2023-06-22T14:42:46;26.10;99.90
32698;DHT22;19087;51.062;3.754;2023-06-22T14:45:12;26.20;99.90
32698;DHT22;19087;51.062;3.754;2023-06-22T14:47:39;26.60;99.90
32698;DHT22;19087;51.062;3.754;2023-06-22T14:50:05;26.90;99.90
32698;DHT22;19087;51.062;3.754;2023-06-22T14:52:31;27.00;99.90
32698;DHT22;19087;51.062;3.754;2023-06-22T14:54:56;26.90;99.90
32698;DHT22;19087;51.062;3.754;2023-06-22T14:57:22;27.10;99.90
32698;DHT22;19087;51.062;3.754;2023-06-22T14:59:51;27.30;99.90
32698;DHT22;19087;51.062;3.754;2023-06-22T15:02:16;27.30;99.90
32698;DHT22;19087;51.062;3.754;2023-06-22T15:04:42;27.30;99.90
32698;DHT22;19087;51.062;3.754;2023-06-22T15:07:08;27.20;99.90
32698;DHT22;19087;51.062;3.754;2023-06-22T15:09:34;27.00;99.90
32698;DHT22;19087;51.062;3.754;2023-06-22T15:11:59;26.90;99.90
32698;DHT22;19087;51.062;3.754;2023-06-22T15:14:29;26.60;99.90
32698;DHT22;19087;51.062;3.754;2023-06-22T15:16:55;26.40;99.90
32698;DHT22;19087;51.062;3.754;2023-06-22T15:19:21;26.20;99.90
32698;DHT22;19087;51.062;3.754;2023-06-22T15:21:46;26.10;99.90
32698;DHT22;19087;51.062;3.754;2023-06-22T15:24:12;26.10;99.90
32698;DHT22;19087;51.062;3.754;2023-06-22T15:26:37;26.10;99.90
32698;DHT22;19087;51.062;3.754;2023-06-22T15:29:04;26.10;99.90
32698;DHT22;19087;51.062;3.754;2023-06-22T15:31:29;26.20;99.90
32698;DHT22;19087;51.062;3.754;2023-06-22T15:33:55;26.30;99.90
32698;DHT22;19087;51.062;3.754;2023-06-22T15:36:20;26.40;99.90
32698;DHT22;19087;51.062;3.754;2023-06-22T15:38:46;26.40;99.90
32698;DHT22;19087;51.062;3.754;2023-06-22T15:41:12;26.50;99.90
32698;DHT22;19087;51.062;3.754;2023-06-22T15:43:38;26.70;99.90
32698;DHT22;19087;51.062;3.754;2023-06-22T15:46:04;26.80;99.90
32698;DHT22;19087;51.062;3.754;2023-06-22T15:48:30;26.80;99.90